sensor_id;sensor_type;location;lat;lon;timestamp;P1;durP1;ratioP1;P2;durP2;ratioP2
2408;SDS011;8463;48.094;7.970;2022-08-19T00:02:04;4.67;;;4.30;;
2408;SDS011;8463;48.094;7.970;2022-08-19T00:04:31;9.93;;;4.40;;
2408;SDS011;8463;48.094;7.970;2022-08-19T00:07:01;4.13;;;3.83;;
2408;SDS011;8463;48.094;7.970;2022-08-19T00:09:28;4.57;;;4.17;;
2408;SDS011;8463;48.094;7.970;2022-08-19T00:11:54;5.60;;;5.10;;
2408;SDS011;8463;48.094;7.970;2022-08-19T00:14:21;6.00;;;5.50;;
2408;SDS011;8463;48.094;7.970;2022-08-19T00:16:48;6.43;;;5.93;;
2408;SDS011;8463;48.094;7.970;2022-08-19T00:19:16;8.07;;;7.37;;
2408;SDS011;8463;48.094;7.970;2022-08-19T00:21:42;8.60;;;7.90;;
2408;SDS011;8463;48.094;7.970;2022-08-19T00:24:08;8.27;;;7.57;;
2408;SDS011;8463;48.094;7.970;2022-08-19T00:26:36;9.90;;;9.00;;
2408;SDS011;8463;48.094;7.970;2022-08-19T00:29:02;10.37;;;9.47;;
2408;SDS011;8463;48.094;7.970;2022-08-19T00:31:29;10.33;;;9.40;;
2408;SDS011;8463;48.094;7.970;2022-08-19T00:33:56;9.00;;;8.10;;
2408;SDS011;8463;48.094;7.970;2022-08-19T00:36:22;8.27;;;7.57;;
2408;SDS011;8463;48.094;7.970;2022-08-19T00:38:47;9.43;;;8.57;;
2408;SDS011;8463;48.094;7.970;2022-08-19T00:41:15;10.17;;;9.17;;
2408;SDS011;8463;48.094;7.970;2022-08-19T00:46:37;10.97;;;9.87;;
2408;SDS011;8463;48.094;7.970;2022-08-19T00:51:46;11.97;;;10.77;;
2408;SDS011;8463;48.094;7.970;2022-08-19T00:54:14;14.40;;;12.90;;
2408;SDS011;8463;48.094;7.970;2022-08-19T00:56:40;12.23;;;11.00;;
2408;SDS011;8463;48.094;7.970;2022-08-19T00:59:07;13.60;;;12.20;;
2408;SDS011;8463;48.094;7.970;2022-08-19T01:01:41;16.33;;;12.20;;
2408;SDS011;8463;48.094;7.970;2022-08-19T01:04:08;11.90;;;10.80;;
2408;SDS011;8463;48.094;7.970;2022-08-19T01:06:38;11.20;;;10.17;;
2408;SDS011;8463;48.094;7.970;2022-08-19T01:09:06;12.53;;;11.37;;
2408;SDS011;8463;48.094;7.970;2022-08-19T01:11:34;12.73;;;11.53;;
2408;SDS011;8463;48.094;7.970;2022-08-19T01:14:03;12.80;;;11.60;;
2408;SDS011;8463;48.094;7.970;2022-08-19T01:16:30;12.33;;;11.23;;
2408;SDS011;8463;48.094;7.970;2022-08-19T01:18:57;12.30;;;11.00;;
2408;SDS011;8463;48.094;7.970;2022-08-19T01:21:34;13.37;;;12.20;;
2408;SDS011;8463;48.094;7.970;2022-08-19T01:24:18;11.53;;;10.53;;
2408;SDS011;8463;48.094;7.970;2022-08-19T01:26:44;11.30;;;10.30;;
2408;SDS011;8463;48.094;7.970;2022-08-19T01:29:12;13.00;;;11.80;;
2408;SDS011;8463;48.094;7.970;2022-08-19T01:31:38;13.87;;;12.57;;
2408;SDS011;8463;48.094;7.970;2022-08-19T01:34:05;14.03;;;12.63;;
2408;SDS011;8463;48.094;7.970;2022-08-19T01:36:34;10.20;;;9.30;;
2408;SDS011;8463;48.094;7.970;2022-08-19T01:39:09;10.60;;;9.70;;
2408;SDS011;8463;48.094;7.970;2022-08-19T01:41:36;10.37;;;9.40;;
2408;SDS011;8463;48.094;7.970;2022-08-19T01:44:04;10.83;;;9.83;;
2408;SDS011;8463;48.094;7.970;2022-08-19T01:46:31;9.30;;;8.40;;
2408;SDS011;8463;48.094;7.970;2022-08-19T01:48:57;10.87;;;9.87;;
2408;SDS011;8463;48.094;7.970;2022-08-19T01:51:23;11.07;;;9.93;;
2408;SDS011;8463;48.094;7.970;2022-08-19T01:53:49;11.37;;;10.37;;
2408;SDS011;8463;48.094;7.970;2022-08-19T01:56:16;11.20;;;10.10;;
2408;SDS011;8463;48.094;7.970;2022-08-19T01:58:44;9.63;;;8.77;;
2408;SDS011;8463;48.094;7.970;2022-08-19T02:01:17;10.20;;;8.77;;
2408;SDS011;8463;48.094;7.970;2022-08-19T02:03:43;10.40;;;9.40;;
2408;SDS011;8463;48.094;7.970;2022-08-19T02:06:08;10.70;;;9.60;;
2408;SDS011;8463;48.094;7.970;2022-08-19T02:08:35;10.10;;;9.00;;
2408;SDS011;8463;48.094;7.970;2022-08-19T02:11:02;9.90;;;8.90;;
2408;SDS011;8463;48.094;7.970;2022-08-19T02:13:28;11.33;;;10.30;;
2408;SDS011;8463;48.094;7.970;2022-08-19T02:15:54;10.30;;;9.30;;
2408;SDS011;8463;48.094;7.970;2022-08-19T02:18:20;10.20;;;9.20;;
2408;SDS011;8463;48.094;7.970;2022-08-19T02:20:45;11.43;;;10.47;;
2408;SDS011;8463;48.094;7.970;2022-08-19T02:23:14;12.17;;;10.90;;
2408;SDS011;8463;48.094;7.970;2022-08-19T02:25:42;12.03;;;10.93;;
2408;SDS011;8463;48.094;7.970;2022-08-19T02:28:10;11.43;;;10.43;;
2408;SDS011;8463;48.094;7.970;2022-08-19T02:30:36;12.17;;;10.93;;
2408;SDS011;8463;48.094;7.970;2022-08-19T02:33:03;13.47;;;11.53;;
2408;SDS011;8463;48.094;7.970;2022-08-19T02:35:29;11.67;;;10.53;;
2408;SDS011;8463;48.094;7.970;2022-08-19T02:37:55;10.33;;;9.43;;
2408;SDS011;8463;48.094;7.970;2022-08-19T02:40:39;12.23;;;10.80;;
2408;SDS011;8463;48.094;7.970;2022-08-19T02:43:06;12.97;;;11.60;;
2408;SDS011;8463;48.094;7.970;2022-08-19T02:45:37;12.00;;;10.80;;
2408;SDS011;8463;48.094;7.970;2022-08-19T02:48:06;13.87;;;12.47;;
2408;SDS011;8463;48.094;7.970;2022-08-19T02:50:33;12.87;;;11.57;;
2408;SDS011;8463;48.094;7.970;2022-08-19T02:53:05;12.30;;;11.20;;
2408;SDS011;8463;48.094;7.970;2022-08-19T02:55:33;11.40;;;10.30;;
2408;SDS011;8463;48.094;7.970;2022-08-19T02:57:58;12.63;;;11.40;;
2408;SDS011;8463;48.094;7.970;2022-08-19T03:00:25;11.70;;;10.60;;
2408;SDS011;8463;48.094;7.970;2022-08-19T03:02:51;12.43;;;11.33;;
2408;SDS011;8463;48.094;7.970;2022-08-19T03:05:17;12.33;;;11.17;;
2408;SDS011;8463;48.094;7.970;2022-08-19T03:07:43;9.93;;;9.13;;
2408;SDS011;8463;48.094;7.970;2022-08-19T03:10:10;11.83;;;10.77;;
2408;SDS011;8463;48.094;7.970;2022-08-19T03:12:36;11.20;;;10.10;;
2408;SDS011;8463;48.094;7.970;2022-08-19T03:15:04;13.53;;;12.10;;
2408;SDS011;8463;48.094;7.970;2022-08-19T03:17:32;12.60;;;11.50;;
2408;SDS011;8463;48.094;7.970;2022-08-19T03:19:58;11.63;;;10.47;;
2408;SDS011;8463;48.094;7.970;2022-08-19T03:22:24;13.17;;;11.97;;
2408;SDS011;8463;48.094;7.970;2022-08-19T03:24:50;17.40;;;14.00;;
2408;SDS011;8463;48.094;7.970;2022-08-19T03:27:15;16.47;;;14.77;;
2408;SDS011;8463;48.094;7.970;2022-08-19T03:29:42;16.07;;;14.37;;
2408;SDS011;8463;48.094;7.970;2022-08-19T03:32:08;13.20;;;12.00;;
2408;SDS011;8463;48.094;7.970;2022-08-19T03:34:35;11.90;;;10.80;;
2408;SDS011;8463;48.094;7.970;2022-08-19T03:37:04;14.30;;;12.90;;
2408;SDS011;8463;48.094;7.970;2022-08-19T03:39:35;12.33;;;11.23;;
2408;SDS011;8463;48.094;7.970;2022-08-19T03:42:03;10.93;;;9.93;;
2408;SDS011;8463;48.094;7.970;2022-08-19T03:44:30;15.47;;;10.77;;
2408;SDS011;8463;48.094;7.970;2022-08-19T03:46:58;11.53;;;10.33;;
2408;SDS011;8463;48.094;7.970;2022-08-19T03:49:25;12.33;;;11.17;;
2408;SDS011;8463;48.094;7.970;2022-08-19T03:51:54;12.70;;;11.50;;
2408;SDS011;8463;48.094;7.970;2022-08-19T03:54:22;13.93;;;12.63;;
2408;SDS011;8463;48.094;7.970;2022-08-19T03:56:49;12.50;;;11.50;;
2408;SDS011;8463;48.094;7.970;2022-08-19T03:59:18;13.63;;;12.07;;
2408;SDS011;8463;48.094;7.970;2022-08-19T04:01:51;11.07;;;10.10;;
2408;SDS011;8463;48.094;7.970;2022-08-19T04:04:18;12.03;;;11.03;;
2408;SDS011;8463;48.094;7.970;2022-08-19T04:06:43;15.80;;;12.73;;
2408;SDS011;8463;48.094;7.970;2022-08-19T04:09:12;11.47;;;10.40;;
2408;SDS011;8463;48.094;7.970;2022-08-19T04:11:48;12.80;;;11.70;;
2408;SDS011;8463;48.094;7.970;2022-08-19T04:14:19;13.70;;;12.30;;
2408;SDS011;8463;48.094;7.970;2022-08-19T04:16:46;12.23;;;11.00;;
2408;SDS011;8463;48.094;7.970;2022-08-19T04:19:14;14.17;;;12.87;;
2408;SDS011;8463;48.094;7.970;2022-08-19T04:21:42;12.60;;;11.30;;
2408;SDS011;8463;48.094;7.970;2022-08-19T04:24:09;11.67;;;10.60;;
2408;SDS011;8463;48.094;7.970;2022-08-19T04:26:36;12.17;;;11.13;;
2408;SDS011;8463;48.094;7.970;2022-08-19T04:29:10;13.80;;;12.50;;
2408;SDS011;8463;48.094;7.970;2022-08-19T04:31:38;13.17;;;11.97;;
2408;SDS011;8463;48.094;7.970;2022-08-19T04:34:06;14.83;;;13.30;;
2408;SDS011;8463;48.094;7.970;2022-08-19T04:36:34;13.40;;;12.20;;
2408;SDS011;8463;48.094;7.970;2022-08-19T04:39:02;14.27;;;12.77;;
2408;SDS011;8463;48.094;7.970;2022-08-19T04:41:30;13.30;;;12.10;;
2408;SDS011;8463;48.094;7.970;2022-08-19T04:44:14;12.97;;;11.67;;
2408;SDS011;8463;48.094;7.970;2022-08-19T04:46:43;12.37;;;11.27;;
2408;SDS011;8463;48.094;7.970;2022-08-19T04:49:09;12.90;;;11.60;;
2408;SDS011;8463;48.094;7.970;2022-08-19T04:51:36;15.17;;;13.77;;
2408;SDS011;8463;48.094;7.970;2022-08-19T04:54:03;14.50;;;13.00;;
2408;SDS011;8463;48.094;7.970;2022-08-19T04:56:29;15.07;;;13.63;;
2408;SDS011;8463;48.094;7.970;2022-08-19T04:58:55;14.00;;;12.63;;
2408;SDS011;8463;48.094;7.970;2022-08-19T05:01:26;17.90;;;15.13;;
2408;SDS011;8463;48.094;7.970;2022-08-19T05:03:54;18.17;;;13.83;;
2408;SDS011;8463;48.094;7.970;2022-08-19T05:06:21;16.70;;;14.90;;
2408;SDS011;8463;48.094;7.970;2022-08-19T05:08:48;15.80;;;14.07;;
2408;SDS011;8463;48.094;7.970;2022-08-19T05:11:18;18.53;;;15.90;;
2408;SDS011;8463;48.094;7.970;2022-08-19T05:13:46;16.40;;;13.83;;
2408;SDS011;8463;48.094;7.970;2022-08-19T05:16:13;17.10;;;15.33;;
2408;SDS011;8463;48.094;7.970;2022-08-19T05:18:41;17.40;;;15.60;;
2408;SDS011;8463;48.094;7.970;2022-08-19T05:21:25;18.50;;;15.73;;
2408;SDS011;8463;48.094;7.970;2022-08-19T05:24:10;19.10;;;16.70;;
2408;SDS011;8463;48.094;7.970;2022-08-19T05:26:36;18.13;;;16.33;;
2408;SDS011;8463;48.094;7.970;2022-08-19T05:29:03;20.33;;;18.13;;
2408;SDS011;8463;48.094;7.970;2022-08-19T05:31:30;17.33;;;15.37;;
2408;SDS011;8463;48.094;7.970;2022-08-19T05:33:56;15.53;;;13.93;;
2408;SDS011;8463;48.094;7.970;2022-08-19T05:36:26;17.13;;;15.33;;
2408;SDS011;8463;48.094;7.970;2022-08-19T05:38:52;17.70;;;15.93;;
2408;SDS011;8463;48.094;7.970;2022-08-19T05:41:19;19.03;;;17.03;;
2408;SDS011;8463;48.094;7.970;2022-08-19T05:43:45;16.67;;;14.97;;
2408;SDS011;8463;48.094;7.970;2022-08-19T05:46:18;18.00;;;16.17;;
2408;SDS011;8463;48.094;7.970;2022-08-19T05:48:45;18.73;;;16.77;;
2408;SDS011;8463;48.094;7.970;2022-08-19T05:51:11;18.80;;;16.33;;
2408;SDS011;8463;48.094;7.970;2022-08-19T05:53:38;17.83;;;15.83;;
2408;SDS011;8463;48.094;7.970;2022-08-19T05:56:07;17.73;;;15.93;;
2408;SDS011;8463;48.094;7.970;2022-08-19T05:58:34;18.07;;;16.30;;
2408;SDS011;8463;48.094;7.970;2022-08-19T06:01:01;15.60;;;13.93;;
2408;SDS011;8463;48.094;7.970;2022-08-19T06:03:30;16.17;;;14.20;;
2408;SDS011;8463;48.094;7.970;2022-08-19T06:05:58;16.70;;;15.00;;
2408;SDS011;8463;48.094;7.970;2022-08-19T06:08:24;15.80;;;14.20;;
2408;SDS011;8463;48.094;7.970;2022-08-19T06:10:51;16.93;;;15.13;;
2408;SDS011;8463;48.094;7.970;2022-08-19T06:13:17;16.20;;;14.27;;
2408;SDS011;8463;48.094;7.970;2022-08-19T06:15:44;14.30;;;12.80;;
2408;SDS011;8463;48.094;7.970;2022-08-19T06:18:11;14.40;;;13.00;;
2408;SDS011;8463;48.094;7.970;2022-08-19T06:20:38;16.53;;;14.93;;
2408;SDS011;8463;48.094;7.970;2022-08-19T06:23:04;18.03;;;15.70;;
2408;SDS011;8463;48.094;7.970;2022-08-19T06:25:30;16.23;;;14.73;;
2408;SDS011;8463;48.094;7.970;2022-08-19T06:27:55;18.90;;;15.33;;
2408;SDS011;8463;48.094;7.970;2022-08-19T06:30:21;15.83;;;14.23;;
2408;SDS011;8463;48.094;7.970;2022-08-19T06:32:47;15.37;;;13.77;;
2408;SDS011;8463;48.094;7.970;2022-08-19T06:35:12;16.00;;;14.40;;
2408;SDS011;8463;48.094;7.970;2022-08-19T06:37:39;16.57;;;15.07;;
2408;SDS011;8463;48.094;7.970;2022-08-19T06:40:05;19.07;;;17.30;;
2408;SDS011;8463;48.094;7.970;2022-08-19T06:42:33;15.57;;;13.83;;
2408;SDS011;8463;48.094;7.970;2022-08-19T06:44:59;16.73;;;14.90;;
2408;SDS011;8463;48.094;7.970;2022-08-19T06:47:28;17.53;;;15.70;;
2408;SDS011;8463;48.094;7.970;2022-08-19T06:49:55;17.57;;;15.87;;
2408;SDS011;8463;48.094;7.970;2022-08-19T06:52:32;17.37;;;14.97;;
2408;SDS011;8463;48.094;7.970;2022-08-19T06:54:59;17.73;;;15.93;;
2408;SDS011;8463;48.094;7.970;2022-08-19T06:57:27;16.07;;;14.57;;
2408;SDS011;8463;48.094;7.970;2022-08-19T06:59:56;15.13;;;13.73;;
2408;SDS011;8463;48.094;7.970;2022-08-19T07:02:21;16.27;;;14.67;;
2408;SDS011;8463;48.094;7.970;2022-08-19T07:04:51;16.93;;;15.37;;
2408;SDS011;8463;48.094;7.970;2022-08-19T07:07:17;15.13;;;13.63;;
2408;SDS011;8463;48.094;7.970;2022-08-19T07:09:44;17.07;;;14.33;;
2408;SDS011;8463;48.094;7.970;2022-08-19T07:12:11;14.20;;;12.80;;
2408;SDS011;8463;48.094;7.970;2022-08-19T07:14:39;15.97;;;14.37;;
2408;SDS011;8463;48.094;7.970;2022-08-19T07:17:06;15.27;;;13.53;;
2408;SDS011;8463;48.094;7.970;2022-08-19T07:19:34;15.87;;;14.17;;
2408;SDS011;8463;48.094;7.970;2022-08-19T07:22:01;15.17;;;13.33;;
2408;SDS011;8463;48.094;7.970;2022-08-19T07:24:28;14.00;;;12.40;;
2408;SDS011;8463;48.094;7.970;2022-08-19T07:26:56;13.37;;;12.00;;
2408;SDS011;8463;48.094;7.970;2022-08-19T07:29:25;13.63;;;12.23;;
2408;SDS011;8463;48.094;7.970;2022-08-19T07:31:53;14.83;;;13.33;;
2408;SDS011;8463;48.094;7.970;2022-08-19T07:34:23;13.13;;;11.83;;
2408;SDS011;8463;48.094;7.970;2022-08-19T07:36:50;16.73;;;14.00;;
2408;SDS011;8463;48.094;7.970;2022-08-19T07:39:22;14.93;;;13.43;;
2408;SDS011;8463;48.094;7.970;2022-08-19T07:41:50;18.23;;;14.70;;
2408;SDS011;8463;48.094;7.970;2022-08-19T07:44:17;16.03;;;14.50;;
2408;SDS011;8463;48.094;7.970;2022-08-19T07:46:46;16.47;;;14.90;;
2408;SDS011;8463;48.094;7.970;2022-08-19T07:49:16;16.27;;;14.67;;
2408;SDS011;8463;48.094;7.970;2022-08-19T07:51:49;17.50;;;15.73;;
2408;SDS011;8463;48.094;7.970;2022-08-19T07:54:26;15.63;;;14.03;;
2408;SDS011;8463;48.094;7.970;2022-08-19T07:56:53;17.30;;;15.70;;
2408;SDS011;8463;48.094;7.970;2022-08-19T07:59:19;21.03;;;17.87;;
2408;SDS011;8463;48.094;7.970;2022-08-19T08:01:46;18.17;;;16.27;;
2408;SDS011;8463;48.094;7.970;2022-08-19T08:04:13;20.33;;;18.13;;
2408;SDS011;8463;48.094;7.970;2022-08-19T08:06:57;22.87;;;18.03;;
2408;SDS011;8463;48.094;7.970;2022-08-19T08:09:42;19.57;;;17.57;;
2408;SDS011;8463;48.094;7.970;2022-08-19T08:12:19;20.87;;;18.77;;
2408;SDS011;8463;48.094;7.970;2022-08-19T08:15:09;21.00;;;18.77;;
2408;SDS011;8463;48.094;7.970;2022-08-19T08:17:43;19.97;;;18.03;;
2408;SDS011;8463;48.094;7.970;2022-08-19T08:20:10;21.93;;;18.93;;
2408;SDS011;8463;48.094;7.970;2022-08-19T08:22:36;20.00;;;17.23;;
2408;SDS011;8463;48.094;7.970;2022-08-19T08:25:26;22.10;;;19.70;;
2408;SDS011;8463;48.094;7.970;2022-08-19T08:27:52;19.80;;;17.70;;
2408;SDS011;8463;48.094;7.970;2022-08-19T08:30:22;20.83;;;18.70;;
2408;SDS011;8463;48.094;7.970;2022-08-19T08:32:49;20.80;;;17.67;;
2408;SDS011;8463;48.094;7.970;2022-08-19T08:35:16;21.60;;;19.30;;
2408;SDS011;8463;48.094;7.970;2022-08-19T08:37:44;20.63;;;18.00;;
2408;SDS011;8463;48.094;7.970;2022-08-19T08:45:30;21.30;;;18.73;;
2408;SDS011;8463;48.094;7.970;2022-08-19T08:47:58;23.40;;;18.87;;
2408;SDS011;8463;48.094;7.970;2022-08-19T08:50:30;21.13;;;18.93;;
2408;SDS011;8463;48.094;7.970;2022-08-19T08:53:03;21.47;;;19.07;;
2408;SDS011;8463;48.094;7.970;2022-08-19T08:55:30;20.60;;;18.50;;
2408;SDS011;8463;48.094;7.970;2022-08-19T08:58:03;20.90;;;18.70;;
2408;SDS011;8463;48.094;7.970;2022-08-19T09:00:37;20.00;;;17.90;;
2408;SDS011;8463;48.094;7.970;2022-08-19T09:03:26;21.33;;;19.03;;
2408;SDS011;8463;48.094;7.970;2022-08-19T09:06:02;22.00;;;19.13;;
2408;SDS011;8463;48.094;7.970;2022-08-19T09:08:44;23.43;;;18.90;;
2408;SDS011;8463;48.094;7.970;2022-08-19T09:11:21;20.03;;;17.93;;
2408;SDS011;8463;48.094;7.970;2022-08-19T09:16:53;21.80;;;19.50;;
2408;SDS011;8463;48.094;7.970;2022-08-19T09:19:18;26.43;;;20.43;;
2408;SDS011;8463;48.094;7.970;2022-08-19T09:21:44;21.33;;;19.23;;
2408;SDS011;8463;48.094;7.970;2022-08-19T09:24:10;19.57;;;17.63;;
2408;SDS011;8463;48.094;7.970;2022-08-19T09:26:36;19.37;;;17.30;;
2408;SDS011;8463;48.094;7.970;2022-08-19T09:29:02;20.33;;;18.33;;
2408;SDS011;8463;48.094;7.970;2022-08-19T09:31:30;20.27;;;18.27;;
2408;SDS011;8463;48.094;7.970;2022-08-19T09:33:57;21.73;;;19.47;;
2408;SDS011;8463;48.094;7.970;2022-08-19T09:36:24;20.63;;;18.43;;
2408;SDS011;8463;48.094;7.970;2022-08-19T09:38:54;20.50;;;18.40;;
2408;SDS011;8463;48.094;7.970;2022-08-19T09:41:23;22.20;;;19.90;;
2408;SDS011;8463;48.094;7.970;2022-08-19T09:43:51;22.37;;;20.07;;
2408;SDS011;8463;48.094;7.970;2022-08-19T09:46:18;20.73;;;18.60;;
2408;SDS011;8463;48.094;7.970;2022-08-19T09:48:48;18.70;;;16.70;;
2408;SDS011;8463;48.094;7.970;2022-08-19T09:51:22;21.60;;;18.63;;
2408;SDS011;8463;48.094;7.970;2022-08-19T09:53:51;23.10;;;20.90;;
2408;SDS011;8463;48.094;7.970;2022-08-19T09:56:19;22.73;;;19.20;;
2408;SDS011;8463;48.094;7.970;2022-08-19T09:58:46;22.10;;;19.87;;
2408;SDS011;8463;48.094;7.970;2022-08-19T10:01:25;23.90;;;19.90;;
2408;SDS011;8463;48.094;7.970;2022-08-19T10:03:53;22.10;;;19.80;;
2408;SDS011;8463;48.094;7.970;2022-08-19T10:06:21;23.37;;;20.00;;
2408;SDS011;8463;48.094;7.970;2022-08-19T10:08:47;21.27;;;19.27;;
2408;SDS011;8463;48.094;7.970;2022-08-19T10:11:13;22.60;;;20.30;;
2408;SDS011;8463;48.094;7.970;2022-08-19T10:13:41;22.00;;;19.83;;
2408;SDS011;8463;48.094;7.970;2022-08-19T10:16:08;21.90;;;19.33;;
2408;SDS011;8463;48.094;7.970;2022-08-19T10:18:39;24.47;;;21.87;;
2408;SDS011;8463;48.094;7.970;2022-08-19T10:21:13;23.20;;;20.93;;
2408;SDS011;8463;48.094;7.970;2022-08-19T10:23:40;23.03;;;20.43;;
2408;SDS011;8463;48.094;7.970;2022-08-19T10:26:10;23.70;;;21.20;;
2408;SDS011;8463;48.094;7.970;2022-08-19T10:28:37;22.00;;;19.70;;
2408;SDS011;8463;48.094;7.970;2022-08-19T10:31:04;22.27;;;19.90;;
2408;SDS011;8463;48.094;7.970;2022-08-19T10:33:31;22.87;;;20.43;;
2408;SDS011;8463;48.094;7.970;2022-08-19T10:36:01;23.10;;;20.47;;
2408;SDS011;8463;48.094;7.970;2022-08-19T10:38:29;22.80;;;20.20;;
2408;SDS011;8463;48.094;7.970;2022-08-19T10:40:56;22.33;;;20.23;;
2408;SDS011;8463;48.094;7.970;2022-08-19T10:43:22;23.67;;;21.33;;
2408;SDS011;8463;48.094;7.970;2022-08-19T10:45:51;22.47;;;20.23;;
2408;SDS011;8463;48.094;7.970;2022-08-19T10:48:19;24.50;;;22.03;;
2408;SDS011;8463;48.094;7.970;2022-08-19T10:50:45;23.63;;;21.13;;
2408;SDS011;8463;48.094;7.970;2022-08-19T10:53:29;25.20;;;22.47;;
2408;SDS011;8463;48.094;7.970;2022-08-19T10:55:55;24.47;;;21.97;;
2408;SDS011;8463;48.094;7.970;2022-08-19T10:58:39;27.17;;;20.20;;
2408;SDS011;8463;48.094;7.970;2022-08-19T11:01:06;26.60;;;23.90;;
2408;SDS011;8463;48.094;7.970;2022-08-19T11:03:32;24.93;;;21.00;;
2408;SDS011;8463;48.094;7.970;2022-08-19T11:06:02;23.90;;;21.10;;
2408;SDS011;8463;48.094;7.970;2022-08-19T11:08:30;21.73;;;19.60;;
2408;SDS011;8463;48.094;7.970;2022-08-19T11:10:58;22.67;;;20.43;;
2408;SDS011;8463;48.094;7.970;2022-08-19T11:13:33;21.90;;;19.80;;
2408;SDS011;8463;48.094;7.970;2022-08-19T11:16:03;21.57;;;19.43;;
2408;SDS011;8463;48.094;7.970;2022-08-19T11:18:35;23.07;;;20.47;;
2408;SDS011;8463;48.094;7.970;2022-08-19T11:21:07;24.07;;;21.53;;
2408;SDS011;8463;48.094;7.970;2022-08-19T11:23:45;21.60;;;19.40;;
2408;SDS011;8463;48.094;7.970;2022-08-19T11:26:13;22.13;;;19.90;;
2408;SDS011;8463;48.094;7.970;2022-08-19T11:28:40;28.13;;;21.27;;
2408;SDS011;8463;48.094;7.970;2022-08-19T11:31:14;23.67;;;21.30;;
2408;SDS011;8463;48.094;7.970;2022-08-19T11:33:43;24.97;;;22.00;;
2408;SDS011;8463;48.094;7.970;2022-08-19T11:36:11;22.60;;;20.30;;
2408;SDS011;8463;48.094;7.970;2022-08-19T11:38:37;23.60;;;21.03;;
2408;SDS011;8463;48.094;7.970;2022-08-19T11:41:06;21.87;;;19.73;;
2408;SDS011;8463;48.094;7.970;2022-08-19T11:43:33;23.70;;;21.30;;
2408;SDS011;8463;48.094;7.970;2022-08-19T11:45:59;24.20;;;21.60;;
2408;SDS011;8463;48.094;7.970;2022-08-19T11:48:31;22.20;;;19.90;;
2408;SDS011;8463;48.094;7.970;2022-08-19T11:50:57;21.77;;;19.60;;
2408;SDS011;8463;48.094;7.970;2022-08-19T11:53:23;22.97;;;20.83;;
2408;SDS011;8463;48.094;7.970;2022-08-19T11:55:49;20.93;;;18.83;;
2408;SDS011;8463;48.094;7.970;2022-08-19T11:58:18;22.90;;;20.80;;
2408;SDS011;8463;48.094;7.970;2022-08-19T12:00:44;22.97;;;20.67;;
2408;SDS011;8463;48.094;7.970;2022-08-19T12:03:10;24.10;;;21.67;;
2408;SDS011;8463;48.094;7.970;2022-08-19T12:05:37;22.57;;;20.30;;
2408;SDS011;8463;48.094;7.970;2022-08-19T12:08:05;22.17;;;19.97;;
2408;SDS011;8463;48.094;7.970;2022-08-19T12:10:31;23.23;;;20.73;;
2408;SDS011;8463;48.094;7.970;2022-08-19T12:12:57;23.83;;;21.50;;
2408;SDS011;8463;48.094;7.970;2022-08-19T12:15:23;21.23;;;18.93;;
2408;SDS011;8463;48.094;7.970;2022-08-19T12:17:52;21.13;;;18.93;;
2408;SDS011;8463;48.094;7.970;2022-08-19T12:20:21;20.23;;;18.23;;
2408;SDS011;8463;48.094;7.970;2022-08-19T12:22:48;20.87;;;18.67;;
2408;SDS011;8463;48.094;7.970;2022-08-19T12:25:13;22.90;;;20.70;;
2408;SDS011;8463;48.094;7.970;2022-08-19T12:27:39;20.23;;;18.30;;
2408;SDS011;8463;48.094;7.970;2022-08-19T12:30:06;21.17;;;19.17;;
2408;SDS011;8463;48.094;7.970;2022-08-19T12:32:33;19.50;;;17.50;;
2408;SDS011;8463;48.094;7.970;2022-08-19T12:34:59;21.77;;;19.57;;
2408;SDS011;8463;48.094;7.970;2022-08-19T12:37:24;19.50;;;17.60;;
2408;SDS011;8463;48.094;7.970;2022-08-19T12:39:50;17.03;;;15.30;;
2408;SDS011;8463;48.094;7.970;2022-08-19T12:42:16;15.90;;;14.30;;
2408;SDS011;8463;48.094;7.970;2022-08-19T12:44:42;18.23;;;16.67;;
2408;SDS011;8463;48.094;7.970;2022-08-19T12:47:10;16.83;;;15.13;;
2408;SDS011;8463;48.094;7.970;2022-08-19T12:49:38;16.23;;;14.77;;
2408;SDS011;8463;48.094;7.970;2022-08-19T12:52:04;17.00;;;15.43;;
2408;SDS011;8463;48.094;7.970;2022-08-19T12:54:30;15.00;;;13.53;;
2408;SDS011;8463;48.094;7.970;2022-08-19T12:56:57;13.30;;;12.13;;
2408;SDS011;8463;48.094;7.970;2022-08-19T12:59:23;16.23;;;14.83;;
2408;SDS011;8463;48.094;7.970;2022-08-19T13:01:49;14.70;;;13.43;;
2408;SDS011;8463;48.094;7.970;2022-08-19T13:04:14;13.17;;;12.07;;
2408;SDS011;8463;48.094;7.970;2022-08-19T13:06:41;12.83;;;11.73;;
2408;SDS011;8463;48.094;7.970;2022-08-19T13:09:07;13.00;;;11.80;;
2408;SDS011;8463;48.094;7.970;2022-08-19T13:11:33;14.67;;;13.47;;
2408;SDS011;8463;48.094;7.970;2022-08-19T13:14:00;13.67;;;12.57;;
2408;SDS011;8463;48.094;7.970;2022-08-19T13:16:27;12.90;;;11.80;;
2408;SDS011;8463;48.094;7.970;2022-08-19T13:18:53;10.77;;;9.97;;
2408;SDS011;8463;48.094;7.970;2022-08-19T13:21:21;12.40;;;11.40;;
2408;SDS011;8463;48.094;7.970;2022-08-19T13:23:50;12.97;;;11.83;;
2408;SDS011;8463;48.094;7.970;2022-08-19T13:26:16;14.00;;;12.80;;
2408;SDS011;8463;48.094;7.970;2022-08-19T13:28:43;13.77;;;12.50;;
2408;SDS011;8463;48.094;7.970;2022-08-19T13:31:28;14.93;;;13.73;;
2408;SDS011;8463;48.094;7.970;2022-08-19T13:34:15;12.70;;;11.63;;
2408;SDS011;8463;48.094;7.970;2022-08-19T13:36:42;13.17;;;12.03;;
2408;SDS011;8463;48.094;7.970;2022-08-19T13:39:08;15.13;;;13.63;;
2408;SDS011;8463;48.094;7.970;2022-08-19T13:41:35;13.27;;;12.10;;
2408;SDS011;8463;48.094;7.970;2022-08-19T13:44:01;15.17;;;13.77;;
2408;SDS011;8463;48.094;7.970;2022-08-19T13:46:27;14.07;;;12.90;;
2408;SDS011;8463;48.094;7.970;2022-08-19T13:48:54;15.63;;;14.27;;
2408;SDS011;8463;48.094;7.970;2022-08-19T13:51:21;14.97;;;13.67;;
2408;SDS011;8463;48.094;7.970;2022-08-19T13:53:46;16.40;;;14.90;;
2408;SDS011;8463;48.094;7.970;2022-08-19T13:56:13;14.80;;;13.43;;
2408;SDS011;8463;48.094;7.970;2022-08-19T13:58:41;15.33;;;14.03;;
2408;SDS011;8463;48.094;7.970;2022-08-19T14:01:07;13.50;;;12.37;;
2408;SDS011;8463;48.094;7.970;2022-08-19T14:03:34;13.80;;;12.60;;
2408;SDS011;8463;48.094;7.970;2022-08-19T14:06:00;14.67;;;13.47;;
2408;SDS011;8463;48.094;7.970;2022-08-19T14:08:27;13.63;;;12.30;;
2408;SDS011;8463;48.094;7.970;2022-08-19T14:10:53;15.97;;;14.60;;
2408;SDS011;8463;48.094;7.970;2022-08-19T14:13:21;16.07;;;14.37;;
2408;SDS011;8463;48.094;7.970;2022-08-19T14:15:47;13.20;;;12.17;;
2408;SDS011;8463;48.094;7.970;2022-08-19T14:18:14;14.57;;;12.93;;
2408;SDS011;8463;48.094;7.970;2022-08-19T14:20:41;15.33;;;13.93;;
2408;SDS011;8463;48.094;7.970;2022-08-19T14:23:06;11.93;;;11.00;;
2408;SDS011;8463;48.094;7.970;2022-08-19T14:25:32;14.00;;;12.80;;
2408;SDS011;8463;48.094;7.970;2022-08-19T14:27:59;15.20;;;13.70;;
2408;SDS011;8463;48.094;7.970;2022-08-19T14:30:32;13.30;;;11.77;;
2408;SDS011;8463;48.094;7.970;2022-08-19T14:32:59;14.03;;;12.83;;
2408;SDS011;8463;48.094;7.970;2022-08-19T14:35:27;11.80;;;10.70;;
2408;SDS011;8463;48.094;7.970;2022-08-19T14:37:54;11.03;;;10.13;;
2408;SDS011;8463;48.094;7.970;2022-08-19T14:40:23;12.97;;;11.80;;
2408;SDS011;8463;48.094;7.970;2022-08-19T14:42:54;13.07;;;11.87;;
2408;SDS011;8463;48.094;7.970;2022-08-19T14:45:24;12.53;;;11.37;;
2408;SDS011;8463;48.094;7.970;2022-08-19T14:47:50;12.73;;;11.43;;
2408;SDS011;8463;48.094;7.970;2022-08-19T14:50:17;10.57;;;9.77;;
2408;SDS011;8463;48.094;7.970;2022-08-19T14:52:43;11.40;;;10.50;;
2408;SDS011;8463;48.094;7.970;2022-08-19T14:55:09;12.87;;;11.67;;
2408;SDS011;8463;48.094;7.970;2022-08-19T14:57:34;12.63;;;11.50;;
2408;SDS011;8463;48.094;7.970;2022-08-19T15:00:00;12.63;;;11.40;;
2408;SDS011;8463;48.094;7.970;2022-08-19T15:02:26;17.60;;;11.60;;
2408;SDS011;8463;48.094;7.970;2022-08-19T15:04:51;11.33;;;10.33;;
2408;SDS011;8463;48.094;7.970;2022-08-19T15:07:17;11.27;;;10.37;;
2408;SDS011;8463;48.094;7.970;2022-08-19T15:09:43;11.90;;;11.00;;
2408;SDS011;8463;48.094;7.970;2022-08-19T15:12:08;12.00;;;11.00;;